Time;durP1;ratioP1;P1;durP2;ratioP2;P2;SDS_P1;SDS_P2;PMS_P1;PMS_P2;Temp;Humidity;BMP_temperature;BMP_pressure;BME280_temperature;BME280_humidity;BME280_pressure;Samples;Min_cycle;Max_cycle;Signal;HPM_P1;HPM_P2
2022/04/06 00:03:20;;;;;;;;;;;17.70;33.30;;;;;;8333406;28;19918;-48
2022/04/06 00:07:20;;;;;;;;;;;17.70;33.30;;;;;;8333231;28;20401;-48
2022/04/06 00:11:21;;;;;;;;;;;17.60;33.30;;;;;;8332584;28;20476;-50
2022/04/06 00:15:21;;;;;;;;;;;17.60;33.30;;;;;;8333279;28;20016;-47
2022/04/06 00:19:21;;;;;;;;;;;17.60;33.30;;;;;;8333052;28;19971;-51
2022/04/06 00:23:22;;;;;;;;;;;17.60;33.30;;;;;;8332269;28;20008;-49
2022/04/06 00:27:22;;;;;;;;;;;17.60;33.30;;;;;;8332530;28;19929;-50
2022/04/06 00:31:23;;;;;;;;;;;17.60;33.30;;;;;;8333001;28;20434;-49
2022/04/06 00:35:29;;;;;;;;;;;17.60;33.40;;;;;;8331960;28;19917;-48
2022/04/06 00:39:29;;;;;;;;;;;17.60;33.40;;;;;;8332599;28;19965;-51
2022/04/06 00:43:30;;;;;;;;;;;17.60;33.40;;;;;;8331433;28;19971;-47
2022/04/06 00:47:30;;;;;;;;;;;17.60;33.40;;;;;;8331616;28;20013;-48
2022/04/06 00:51:31;;;;;;;;;;;17.60;33.40;;;;;;8332099;28;19996;-49
2022/04/06 00:55:36;;;;;;;;;;;17.60;33.40;;;;;;8331701;28;19924;-47
2022/04/06 00:59:37;;;;;;;;;;;17.60;33.40;;;;;;8331604;28;20273;-49
2022/04/06 01:03:37;;;;;;;;;;;17.60;33.40;;;;;;8331442;28;19917;-50
2022/04/06 01:07:38;;;;;;;;;;;17.60;33.50;;;;;;8337808;28;19943;-47
2022/04/06 01:11:39;;;;;;;;;;;17.60;33.40;;;;;;8364132;28;19924;-46
2022/04/06 01:15:40;;;;;;;;;;;17.60;33.40;;;;;;8364254;28;19939;-47
2022/04/06 01:19:43;;;;;;;;;;;17.60;33.40;;;;;;8363939;28;19944;-49
2022/04/06 01:23:44;;;;;;;;;;;17.60;33.50;;;;;;8363317;28;19928;-49
2022/04/06 01:27:45;;;;;;;;;;;17.60;33.50;;;;;;8363901;28;19935;-48
2022/04/06 01:31:46;;;;;;;;;;;17.60;33.50;;;;;;8364175;28;19932;-52
2022/04/06 01:35:47;;;;;;;;;;;17.60;33.50;;;;;;8363308;28;20439;-48
2022/04/06 01:39:49;;;;;;;;;;;17.60;33.50;;;;;;8363418;28;19971;-49
2022/04/06 01:43:49;;;;;;;;;;;17.60;33.50;;;;;;8363462;28;19925;-48
2022/04/06 01:47:49;;;;;;;;;;;17.60;33.50;;;;;;8362802;28;20394;-50
2022/04/06 01:56:09;;;;;;;;;;;17.60;33.50;;;;;;8363488;28;19966;-46
2022/04/06 02:00:11;;;;;;;;;;;17.60;33.50;;;;;;8362348;28;20425;-46
2022/04/06 02:04:14;;;;;;;;;;;17.60;33.50;;;;;;8363027;28;19920;-47
2022/04/06 02:08:15;;;;;;;;;;;17.60;33.50;;;;;;8362548;28;20269;-48
2022/04/06 02:12:15;;;;;;;;;;;17.50;33.50;;;;;;8363164;28;19993;-47
2022/04/06 02:16:16;;;;;;;;;;;17.50;33.50;;;;;;8363088;28;19935;-47
2022/04/06 02:20:17;;;;;;;;;;;17.50;33.50;;;;;;8362152;28;19964;-48
2022/04/06 02:24:18;;;;;;;;;;;17.50;33.50;;;;;;8363135;28;20427;-47
2022/04/06 02:28:19;;;;;;;;;;;17.50;33.50;;;;;;8362713;28;19924;-47
2022/04/06 02:32:19;;;;;;;;;;;17.50;33.60;;;;;;8362275;28;20328;-48
2022/04/06 02:36:19;;;;;;;;;;;17.50;33.60;;;;;;8363125;28;19916;-49
2022/04/06 02:40:20;;;;;;;;;;;17.50;33.60;;;;;;8362429;28;20452;-47
2022/04/06 02:44:20;;;;;;;;;;;17.50;33.60;;;;;;8361997;28;20324;-48
2022/04/06 02:48:21;;;;;;;;;;;17.50;33.60;;;;;;8362632;28;20357;-48
2022/04/06 02:52:22;;;;;;;;;;;17.50;33.60;;;;;;8362417;28;19912;-47
2022/04/06 02:56:22;;;;;;;;;;;17.50;33.70;;;;;;8362044;28;19916;-48
2022/04/06 03:00:23;;;;;;;;;;;17.50;33.70;;;;;;8362658;28;19925;-47
2022/04/06 03:04:23;;;;;;;;;;;17.50;33.70;;;;;;8362377;28;19964;-48
2022/04/06 03:08:24;;;;;;;;;;;17.50;33.70;;;;;;8366263;28;19963;-48
2022/04/06 03:12:24;;;;;;;;;;;17.50;33.70;;;;;;8368269;28;19912;-52
2022/04/06 03:16:25;;;;;;;;;;;17.50;33.70;;;;;;8367987;28;19923;-47
2022/04/06 03:20:25;;;;;;;;;;;17.50;33.70;;;;;;8367203;28;20012;-48
2022/04/06 03:24:25;;;;;;;;;;;17.50;33.70;;;;;;8368033;28;20373;-48
2022/04/06 03:28:26;;;;;;;;;;;17.50;33.70;;;;;;8367576;28;20349;-51
2022/04/06 03:32:26;;;;;;;;;;;17.50;33.70;;;;;;8367355;28;20008;-49
2022/04/06 03:36:27;;;;;;;;;;;17.50;33.70;;;;;;8367169;28;20377;-47
2022/04/06 03:40:31;;;;;;;;;;;17.50;33.60;;;;;;8367065;28;19963;-48
2022/04/06 03:44:31;;;;;;;;;;;17.50;33.60;;;;;;8366609;28;19913;-48
2022/04/06 03:48:32;;;;;;;;;;;17.50;33.60;;;;;;8366803;28;19917;-47
2022/04/06 03:52:32;;;;;;;;;;;17.50;33.60;;;;;;8367218;28;19963;-49
2022/04/06 03:56:33;;;;;;;;;;;17.50;33.60;;;;;;8366303;28;20393;-49
2022/04/06 04:00:34;;;;;;;;;;;17.50;33.70;;;;;;8366344;28;20007;-47
2022/04/06 04:04:35;;;;;;;;;;;17.50;33.60;;;;;;8366613;28;19913;-49
2022/04/06 04:08:35;;;;;;;;;;;17.50;33.60;;;;;;8365909;28;19928;-48
2022/04/06 04:12:36;;;;;;;;;;;17.50;33.70;;;;;;8335169;28;19996;-47
2022/04/06 04:16:37;;;;;;;;;;;17.50;33.70;;;;;;8333206;28;19921;-49
2022/04/06 04:20:40;;;;;;;;;;;17.50;33.70;;;;;;8332347;28;19932;-50
2022/04/06 04:24:40;;;;;;;;;;;17.50;33.70;;;;;;8333252;28;19997;-47
2022/04/06 04:28:41;;;;;;;;;;;17.50;33.70;;;;;;8332877;28;19921;-48
2022/04/06 04:32:41;;;;;;;;;;;17.50;33.70;;;;;;8332294;28;20392;-48
2022/04/06 04:36:41;;;;;;;;;;;17.50;33.80;;;;;;8332646;28;19924;-48
2022/04/06 04:40:42;;;;;;;;;;;17.50;33.80;;;;;;8332252;28;20008;-47
2022/04/06 04:44:42;;;;;;;;;;;17.50;33.80;;;;;;8331730;28;19917;-47
2022/04/06 04:48:43;;;;;;;;;;;17.50;33.80;;;;;;8332122;28;19913;-48
2022/04/06 04:52:44;;;;;;;;;;;17.50;33.90;;;;;;8332176;28;19940;-48
2022/04/06 04:56:44;;;;;;;;;;;17.50;33.80;;;;;;8331336;28;20004;-51
2022/04/06 05:00:46;;;;;;;;;;;17.50;33.90;;;;;;8332023;28;19958;-47
2022/04/06 05:04:46;;;;;;;;;;;17.50;33.90;;;;;;8331520;28;19921;-51
2022/04/06 05:08:47;;;;;;;;;;;17.50;33.90;;;;;;8331000;28;19921;-50
2022/04/06 05:12:48;;;;;;;;;;;17.50;33.90;;;;;;8331568;28;20378;-48
2022/04/06 05:16:48;;;;;;;;;;;17.50;33.90;;;;;;8331418;28;19924;-48
2022/04/06 05:20:49;;;;;;;;;;;17.50;33.90;;;;;;8330628;28;20281;-49
2022/04/06 05:24:50;;;;;;;;;;;17.50;33.90;;;;;;8331465;28;19917;-49
2022/04/06 05:28:50;;;;;;;;;;;17.50;33.90;;;;;;8330164;28;19917;-49
2022/04/06 05:32:52;;;;;;;;;;;17.50;33.90;;;;;;8330598;28;19913;-49
2022/04/06 05:36:52;;;;;;;;;;;17.50;33.90;;;;;;8330790;28;19948;-49
2022/04/06 05:40:53;;;;;;;;;;;17.60;34.00;;;;;;8330547;28;20270;-48
2022/04/06 05:44:53;;;;;;;;;;;17.50;33.90;;;;;;8329911;28;19917;-50
2022/04/06 05:48:54;;;;;;;;;;;17.60;34.00;;;;;;8330451;28;19976;-50
2022/04/06 05:52:55;;;;;;;;;;;17.60;34.00;;;;;;8330694;28;19917;-47
2022/04/06 05:56:55;;;;;;;;;;;17.50;33.90;;;;;;8329753;28;20059;-52
2022/04/06 06:00:56;;;;;;;;;;;17.50;34.00;;;;;;8330424;28;19925;-49
2022/04/06 06:04:56;;;;;;;;;;;17.60;34.00;;;;;;8330129;28;19947;-50
2022/04/06 06:08:57;;;;;;;;;;;17.60;34.00;;;;;;8329691;28;19928;-51
2022/04/06 06:12:58;;;;;;;;;;;17.50;34.00;;;;;;8330411;28;20386;-50
2022/04/06 06:16:58;;;;;;;;;;;17.60;34.00;;;;;;8329968;28;19917;-50
2022/04/06 06:21:01;;;;;;;;;;;17.60;34.00;;;;;;8329156;28;20386;-49
2022/04/06 06:25:02;;;;;;;;;;;17.60;34.00;;;;;;8329684;28;19913;-47
2022/04/06 06:29:03;;;;;;;;;;;17.60;34.00;;;;;;8329837;28;19940;-49
2022/04/06 06:33:03;;;;;;;;;;;17.60;34.00;;;;;;8329392;28;19917;-51
2022/04/06 06:37:04;;;;;;;;;;;17.60;34.00;;;;;;8329660;28;19917;-50
2022/04/06 06:41:04;;;;;;;;;;;17.60;34.00;;;;;;8330917;28;19921;-47
2022/04/06 06:45:05;;;;;;;;;;;17.60;34.00;;;;;;8335504;28;19924;-47
2022/04/06 06:49:05;;;;;;;;;;;17.60;34.00;;;;;;8336192;28;19913;-52
2022/04/06 06:53:06;;;;;;;;;;;17.60;34.00;;;;;;8335775;28;19963;-49
2022/04/06 06:57:07;;;;;;;;;;;17.60;34.00;;;;;;8334973;28;19924;-52
2022/04/06 07:01:07;;;;;;;;;;;17.60;34.00;;;;;;8335456;28;19957;-48
2022/04/06 07:05:08;;;;;;;;;;;17.60;34.00;;;;;;8334754;28;19982;-49
2022/04/06 07:09:09;;;;;;;;;;;17.70;34.00;;;;;;8334822;28;20004;-50
2022/04/06 07:13:12;;;;;;;;;;;17.70;34.00;;;;;;8335198;28;20294;-46
2022/04/06 07:17:13;;;;;;;;;;;17.70;33.90;;;;;;8334895;28;20269;-49
2022/04/06 07:21:13;;;;;;;;;;;17.70;33.90;;;;;;8334003;28;19934;-47
2022/04/06 07:25:14;;;;;;;;;;;17.70;33.90;;;;;;8334859;28;19919;-48
2022/04/06 07:29:15;;;;;;;;;;;17.80;34.00;;;;;;8333559;28;19917;-46
2022/04/06 07:33:15;;;;;;;;;;;17.80;33.90;;;;;;8332890;28;20003;-46
2022/04/06 07:37:16;;;;;;;;;;;17.80;33.90;;;;;;8332610;28;19917;-48
2022/04/06 07:41:17;;;;;;;;;;;17.80;33.90;;;;;;8332091;28;19944;-49
2022/04/06 07:45:19;;;;;;;;;;;17.80;33.90;;;;;;8332483;28;19917;-47
2022/04/06 07:49:19;;;;;;;;;;;17.80;33.90;;;;;;8332883;28;20428;-49
2022/04/06 07:53:20;;;;;;;;;;;17.80;33.90;;;;;;8333095;28;19917;-47
2022/04/06 07:57:20;;;;;;;;;;;17.80;33.90;;;;;;8333426;28;19917;-48
2022/04/06 08:01:21;;;;;;;;;;;17.80;33.90;;;;;;8333656;28;20052;-49
2022/04/06 08:05:22;;;;;;;;;;;17.80;33.90;;;;;;8340219;28;19917;-49
2022/04/06 08:09:23;;;;;;;;;;;17.80;33.90;;;;;;8367020;28;19913;-50
2022/04/06 08:13:23;;;;;;;;;;;17.90;33.90;;;;;;8366288;28;19917;-52
2022/04/06 08:17:25;;;;;;;;;;;17.90;33.90;;;;;;8365497;28;20254;-49
2022/04/06 08:21:26;;;;;;;;;;;17.90;34.00;;;;;;8366034;28;19978;-48
2022/04/06 08:25:27;;;;;;;;;;;17.90;33.90;;;;;;8365875;28;20277;-49
2022/04/06 08:29:27;;;;;;;;;;;17.90;33.90;;;;;;8365460;28;19916;-49
2022/04/06 08:33:28;;;;;;;;;;;17.90;33.90;;;;;;8365470;28;19917;-51
2022/04/06 08:37:32;;;;;;;;;;;17.90;33.90;;;;;;8365381;28;19992;-52
2022/04/06 08:41:33;;;;;;;;;;;17.90;33.90;;;;;;8364623;28;19933;-46
2022/04/06 08:45:34;;;;;;;;;;;18.00;33.90;;;;;;8365040;28;20292;-48
2022/04/06 08:49:35;;;;;;;;;;;18.00;33.90;;;;;;8365591;28;19913;-48
2022/04/06 08:53:39;;;;;;;;;;;18.00;33.90;;;;;;8364352;28;19921;-49
2022/04/06 08:57:40;;;;;;;;;;;18.00;33.90;;;;;;8364996;28;19936;-47
2022/04/06 09:01:41;;;;;;;;;;;18.00;33.90;;;;;;8364612;28;20007;-47
2022/04/06 09:05:41;;;;;;;;;;;18.10;33.90;;;;;;8380108;28;19928;-48
2022/04/06 09:09:41;;;;;;;;;;;18.00;33.90;;;;;;8331534;28;20000;-47
2022/04/06 09:13:43;;;;;;;;;;;18.00;33.90;;;;;;8331126;28;20294;-50
2022/04/06 09:17:45;;;;;;;;;;;18.10;34.00;;;;;;8330599;28;19917;-48
2022/04/06 09:21:48;;;;;;;;;;;18.10;34.00;;;;;;8330876;28;19948;-48
2022/04/06 09:25:49;;;;;;;;;;;18.10;34.00;;;;;;8330977;28;19955;-48
2022/04/06 09:29:50;;;;;;;;;;;18.10;34.00;;;;;;8330595;28;19917;-48
2022/04/06 09:34:00;;;;;;;;;;;18.10;34.00;;;;;;8330697;28;19921;-49
2022/04/06 09:38:09;;;;;;;;;;;18.10;34.00;;;;;;8330692;28;20469;-48
2022/04/06 09:42:17;;;;;;;;;;;18.10;34.00;;;;;;8329900;28;20309;-47
2022/04/06 09:50:43;;;;;;;;;;;18.20;34.00;;;;;;8331424;28;20421;-49
2022/04/06 09:54:44;;;;;;;;;;;18.20;34.00;;;;;;8330639;28;19913;-48
2022/04/06 09:58:45;;;;;;;;;;;18.20;34.00;;;;;;8330361;28;19925;-51
2022/04/06 10:02:47;;;;;;;;;;;18.30;34.00;;;;;;8329495;28;20016;-48
2022/04/06 10:06:48;;;;;;;;;;;18.30;34.00;;;;;;8354161;28;20306;-49
2022/04/06 10:10:53;;;;;;;;;;;18.30;34.00;;;;;;8363017;28;19920;-49
2022/04/06 10:14:53;;;;;;;;;;;18.30;34.00;;;;;;8364106;28;19913;-47
2022/04/06 10:18:54;;;;;;;;;;;18.30;34.00;;;;;;8369906;28;19929;-48
2022/04/06 10:22:58;;;;;;;;;;;18.30;33.90;;;;;;8369814;28;19917;-46
2022/04/06 10:27:04;;;;;;;;;;;18.30;34.00;;;;;;8368948;28;19921;-49
2022/04/06 10:31:24;;;;;;;;;;;18.30;33.90;;;;;;8369243;28;19970;-48
2022/04/06 10:35:26;;;;;;;;;;;18.40;34.00;;;;;;8368995;28;20365;-50
2022/04/06 10:39:26;;;;;;;;;;;18.40;33.90;;;;;;8369352;28;19925;-48
2022/04/06 10:43:40;;;;;;;;;;;18.40;33.90;;;;;;8368912;28;19970;-47
2022/04/06 10:48:00;;;;;;;;;;;18.40;33.90;;;;;;8368292;28;19917;-51
2022/04/06 10:52:22;;;;;;;;;;;18.40;33.90;;;;;;8368562;28;19917;-50
2022/04/06 10:56:23;;;;;;;;;;;18.50;34.00;;;;;;8368133;28;19923;-50
2022/04/06 11:00:25;;;;;;;;;;;18.50;33.90;;;;;;8369062;28;20279;-48
2022/04/06 11:04:25;;;;;;;;;;;18.50;34.00;;;;;;8368263;28;19970;-50
2022/04/06 11:13:06;;;;;;;;;;;18.50;33.80;;;;;;8370162;28;20005;-51
2022/04/06 11:17:26;;;;;;;;;;;18.60;33.80;;;;;;8367996;28;20369;-50
2022/04/06 11:21:26;;;;;;;;;;;18.60;33.90;;;;;;8367690;28;20301;-47
2022/04/06 11:25:28;;;;;;;;;;;18.70;33.90;;;;;;8367779;28;19920;-47
2022/04/06 11:29:28;;;;;;;;;;;18.70;33.80;;;;;;8366508;28;19997;-48
2022/04/06 11:33:39;;;;;;;;;;;18.70;33.80;;;;;;8367311;28;20270;-47
2022/04/06 11:37:43;;;;;;;;;;;18.70;33.90;;;;;;8367063;28;20300;-49
2022/04/06 11:41:44;;;;;;;;;;;18.70;33.90;;;;;;8366600;28;19925;-49
2022/04/06 11:45:47;;;;;;;;;;;18.80;34.40;;;;;;8367273;28;19955;-48
2022/04/06 11:49:47;;;;;;;;;;;18.80;33.80;;;;;;8367180;28;19916;-47
2022/04/06 11:53:48;;;;;;;;;;;18.80;33.80;;;;;;8366043;28;19917;-48
2022/04/06 11:57:48;;;;;;;;;;;18.80;33.80;;;;;;8366601;28;19928;-48
2022/04/06 12:01:50;;;;;;;;;;;18.80;33.80;;;;;;8366508;28;20031;-46
2022/04/06 12:05:51;;;;;;;;;;;18.90;33.80;;;;;;8366094;28;19913;-49
2022/04/06 12:09:51;;;;;;;;;;;18.90;33.80;;;;;;8366590;28;19995;-47
2022/04/06 12:13:52;;;;;;;;;;;18.90;33.70;;;;;;8366136;28;19923;-49
2022/04/06 12:17:53;;;;;;;;;;;18.90;33.60;;;;;;8365560;28;19937;-51
2022/04/06 12:21:54;;;;;;;;;;;18.90;33.60;;;;;;8366151;28;20054;-47
2022/04/06 12:25:59;;;;;;;;;;;19.00;33.70;;;;;;8366103;28;19948;-51
2022/04/06 12:30:09;;;;;;;;;;;19.00;33.60;;;;;;8365278;28;20010;-47
2022/04/06 12:34:29;;;;;;;;;;;19.00;33.60;;;;;;8365765;28;20331;-47
2022/04/06 12:38:29;;;;;;;;;;;19.00;33.70;;;;;;8363729;28;19917;-48
2022/04/06 12:42:36;;;;;;;;;;;19.00;33.70;;;;;;8365604;28;20296;-52
2022/04/06 12:46:44;;;;;;;;;;;19.00;33.70;;;;;;8365353;28;20377;-49
2022/04/06 12:50:44;;;;;;;;;;;19.00;33.70;;;;;;8364751;28;20223;-47
2022/04/06 12:54:46;;;;;;;;;;;19.00;33.80;;;;;;8364766;28;20251;-51
2022/04/06 12:58:46;;;;;;;;;;;19.00;33.80;;;;;;8374066;28;19924;-47
2022/04/06 13:02:46;;;;;;;;;;;19.00;33.80;;;;;;8332133;28;19960;-51
2022/04/06 13:06:47;;;;;;;;;;;19.00;33.80;;;;;;8331350;28;20263;-50
2022/04/06 13:10:48;;;;;;;;;;;19.00;33.80;;;;;;8354464;28;19912;-49
2022/04/06 13:14:49;;;;;;;;;;;19.00;33.70;;;;;;8372994;28;19962;-51
2022/04/06 13:18:49;;;;;;;;;;;19.00;33.70;;;;;;8359859;28;20552;-47
2022/04/06 13:22:54;;;;;;;;;;;19.00;33.80;;;;;;8330815;28;19917;-50
2022/04/06 13:26:54;;;;;;;;;;;19.10;33.80;;;;;;8330208;28;19913;-48
2022/04/06 13:30:57;;;;;;;;;;;19.10;33.80;;;;;;8330970;28;19925;-50
2022/04/06 13:35:00;;;;;;;;;;;19.10;33.70;;;;;;8330458;28;19917;-47
2022/04/06 13:39:00;;;;;;;;;;;19.10;33.80;;;;;;8330211;28;20297;-52
2022/04/06 13:43:01;;;;;;;;;;;19.10;33.80;;;;;;8330591;28;19917;-47
2022/04/06 13:47:03;;;;;;;;;;;19.10;33.80;;;;;;8330404;28;19984;-48
2022/04/06 13:51:05;;;;;;;;;;;19.10;33.80;;;;;;8329459;28;19914;-48
2022/04/06 13:55:06;;;;;;;;;;;19.10;33.80;;;;;;8330277;28;20429;-47
2022/04/06 13:59:07;;;;;;;;;;;19.10;33.80;;;;;;8329665;28;19971;-52
2022/04/06 14:03:09;;;;;;;;;;;19.10;33.80;;;;;;8328753;28;21296;-48
2022/04/06 14:07:10;;;;;;;;;;;19.10;33.80;;;;;;8329783;28;19917;-51
2022/04/06 14:11:10;;;;;;;;;;;19.10;33.80;;;;;;8329998;28;19913;-47
2022/04/06 14:15:10;;;;;;;;;;;19.10;33.80;;;;;;8329066;28;19917;-48
2022/04/06 14:19:12;;;;;;;;;;;19.10;33.80;;;;;;8329697;28;19995;-51
2022/04/06 14:23:12;;;;;;;;;;;19.10;33.80;;;;;;8329626;28;20277;-47
2022/04/06 14:27:13;;;;;;;;;;;19.10;33.80;;;;;;8329045;28;19921;-50
2022/04/06 14:31:14;;;;;;;;;;;19.10;33.80;;;;;;8329698;28;19937;-46
2022/04/06 14:35:17;;;;;;;;;;;19.10;33.80;;;;;;8329563;28;20388;-48
2022/04/06 14:39:17;;;;;;;;;;;19.10;33.80;;;;;;8329067;28;19932;-49
2022/04/06 14:43:19;;;;;;;;;;;19.20;33.90;;;;;;8329372;28;19996;-47
2022/04/06 14:47:21;;;;;;;;;;;19.10;33.80;;;;;;8328940;28;19913;-51
2022/04/06 14:51:21;;;;;;;;;;;19.10;33.80;;;;;;8329718;28;19924;-48
2022/04/06 14:55:22;;;;;;;;;;;19.10;33.80;;;;;;8329563;28;20358;-52
2022/04/06 14:59:22;;;;;;;;;;;19.10;33.80;;;;;;8329078;28;19932;-50
2022/04/06 15:03:23;;;;;;;;;;;19.10;33.80;;;;;;8332302;28;19963;-50
2022/04/06 15:07:23;;;;;;;;;;;19.10;33.80;;;;;;8334992;28;20289;-50
2022/04/06 15:11:24;;;;;;;;;;;19.10;33.90;;;;;;8334738;28;20255;-48
2022/04/06 15:15:24;;;;;;;;;;;19.10;33.80;;;;;;8335069;28;20370;-52
2022/04/06 15:19:25;;;;;;;;;;;19.10;33.80;;;;;;8334910;28;19924;-47
2022/04/06 15:23:25;;;;;;;;;;;19.10;33.90;;;;;;8334305;28;19917;-51
2022/04/06 15:27:26;;;;;;;;;;;19.10;33.90;;;;;;8334685;28;20285;-47
2022/04/06 15:31:26;;;;;;;;;;;19.10;33.90;;;;;;8367304;28;19924;-51
2022/04/06 15:39:46;;;;;;;;;;;19.10;34.40;;;;;;8371928;28;19970;-52
2022/04/06 15:43:47;;;;;;;;;;;19.10;33.90;;;;;;8367080;28;20235;-53
2022/04/06 15:47:47;;;;;;;;;;;19.10;33.90;;;;;;8366344;28;19913;-50
2022/04/06 15:51:48;;;;;;;;;;;19.20;33.90;;;;;;8367080;28;19912;-49
2022/04/06 15:55:48;;;;;;;;;;;19.10;33.90;;;;;;8366717;28;19917;-49
2022/04/06 15:59:49;;;;;;;;;;;19.10;33.90;;;;;;8366145;28;19970;-51
2022/04/06 16:03:50;;;;;;;;;;;19.10;33.80;;;;;;8366103;28;19952;-51
2022/04/06 16:07:50;;;;;;;;;;;19.10;33.80;;;;;;8344026;28;19917;-51
2022/04/06 16:11:51;;;;;;;;;;;19.10;34.10;;;;;;8342674;28;20429;-52
2022/04/06 16:15:51;;;;;;;;;;;19.10;33.80;;;;;;8355343;28;19917;-49
2022/04/06 16:19:52;;;;;;;;;;;19.10;33.80;;;;;;8349399;28;20370;-52
2022/04/06 16:23:52;;;;;;;;;;;19.10;33.80;;;;;;8356541;28;19917;-51
2022/04/06 16:27:53;;;;;;;;;;;19.10;33.80;;;;;;8332696;28;19924;-48
2022/04/06 16:31:53;;;;;;;;;;;19.10;33.90;;;;;;8359163;28;19917;-47
2022/04/06 16:35:54;;;;;;;;;;;19.10;33.90;;;;;;8340064;28;20541;-48
2022/04/06 16:39:55;;;;;;;;;;;19.10;33.90;;;;;;8332114;28;19925;-47
2022/04/06 16:43:59;;;;;;;;;;;19.10;33.90;;;;;;8332146;28;19982;-49
2022/04/06 16:48:01;;;;;;;;;;;19.10;34.00;;;;;;8350734;28;20007;-47
2022/04/06 16:56:20;;;;;;;;;;;19.10;34.00;;;;;;8364531;28;20055;-47
2022/04/06 17:00:21;;;;;;;;;;;19.10;34.00;;;;;;8364480;28;19929;-48
2022/04/06 17:04:21;;;;;;;;;;;19.10;34.00;;;;;;8350218;28;20383;-48
2022/04/06 17:08:22;;;;;;;;;;;19.10;34.00;;;;;;8330788;28;20293;-50
2022/04/06 17:12:23;;;;;;;;;;;19.10;34.00;;;;;;8331768;28;19913;-47
2022/04/06 17:16:23;;;;;;;;;;;19.10;33.90;;;;;;8331209;28;20000;-47
2022/04/06 17:20:24;;;;;;;;;;;19.10;34.00;;;;;;8336293;28;20019;-49
2022/04/06 17:24:24;;;;;;;;;;;19.10;34.00;;;;;;8363593;28;19917;-50
2022/04/06 17:28:25;;;;;;;;;;;19.10;34.00;;;;;;8361651;28;19913;-51
2022/04/06 17:32:25;;;;;;;;;;;19.10;34.00;;;;;;8330623;28;19916;-47
2022/04/06 17:36:26;;;;;;;;;;;19.10;34.00;;;;;;8330573;28;19917;-48
2022/04/06 17:40:27;;;;;;;;;;;19.10;34.00;;;;;;8361309;28;19921;-48
2022/04/06 17:44:28;;;;;;;;;;;19.00;33.90;;;;;;8362881;28;19917;-51
2022/04/06 17:48:28;;;;;;;;;;;19.10;34.00;;;;;;8341512;28;19940;-52
2022/04/06 17:52:29;;;;;;;;;;;19.00;33.90;;;;;;8332350;28;19972;-52
2022/04/06 17:56:31;;;;;;;;;;;19.10;34.00;;;;;;8351520;28;19912;-51
2022/04/06 18:00:31;;;;;;;;;;;19.10;34.00;;;;;;8350203;28;19925;-48
2022/04/06 18:04:35;;;;;;;;;;;19.00;34.00;;;;;;8363333;28;19935;-49
2022/04/06 18:08:35;;;;;;;;;;;19.00;34.00;;;;;;8343048;28;19991;-47
2022/04/06 18:16:54;;;;;;;;;;;19.00;34.00;;;;;;8366716;28;20445;-47
2022/04/06 18:20:59;;;;;;;;;;;19.00;34.00;;;;;;8362401;28;19925;-50
2022/04/06 18:24:59;;;;;;;;;;;19.00;34.00;;;;;;8362746;28;19959;-51
2022/04/06 18:29:00;;;;;;;;;;;19.00;34.00;;;;;;8351339;28;19926;-48
2022/04/06 18:33:00;;;;;;;;;;;19.00;34.00;;;;;;8329408;28;19971;-48
2022/04/06 18:37:01;;;;;;;;;;;19.00;34.00;;;;;;8332366;28;19921;-49
2022/04/06 18:41:01;;;;;;;;;;;19.00;34.00;;;;;;8335899;28;19921;-51
2022/04/06 18:45:02;;;;;;;;;;;19.00;34.00;;;;;;8338516;28;20393;-50
2022/04/06 18:49:05;;;;;;;;;;;19.00;33.90;;;;;;8367891;28;19944;-53
2022/04/06 18:53:05;;;;;;;;;;;19.00;34.00;;;;;;8335975;28;19948;-51
2022/04/06 18:57:05;;;;;;;;;;;19.00;34.00;;;;;;8334845;28;20312;-50
2022/04/06 19:01:06;;;;;;;;;;;19.00;34.00;;;;;;8345417;28;19948;-52
2022/04/06 19:05:07;;;;;;;;;;;19.00;34.00;;;;;;8339677;28;20263;-54
2022/04/06 19:09:07;;;;;;;;;;;19.00;34.50;;;;;;8334792;28;19917;-49
2022/04/06 19:13:08;;;;;;;;;;;19.00;34.10;;;;;;8334707;28;20334;-50
2022/04/06 19:17:09;;;;;;;;;;;19.00;34.10;;;;;;8334825;28;20297;-50
2022/04/06 19:21:09;;;;;;;;;;;18.90;34.10;;;;;;8354656;28;19925;-49
2022/04/06 19:25:10;;;;;;;;;;;19.00;34.10;;;;;;8361787;28;20294;-51
2022/04/06 19:29:10;;;;;;;;;;;19.00;34.10;;;;;;8340607;28;19943;-49
2022/04/06 19:33:11;;;;;;;;;;;19.00;34.10;;;;;;8334275;28;19967;-49
2022/04/06 19:37:13;;;;;;;;;;;19.00;34.00;;;;;;8334451;28;19925;-49
2022/04/06 19:41:13;;;;;;;;;;;18.90;34.00;;;;;;8334493;28;20274;-50
2022/04/06 19:45:14;;;;;;;;;;;19.00;34.00;;;;;;8333737;28;19917;-49
2022/04/06 19:49:14;;;;;;;;;;;18.90;34.00;;;;;;8333538;28;20341;-50
2022/04/06 19:53:14;;;;;;;;;;;18.90;34.10;;;;;;8334322;28;19913;-49
2022/04/06 19:57:15;;;;;;;;;;;19.00;34.10;;;;;;8333594;28;19924;-48
2022/04/06 20:01:15;;;;;;;;;;;18.90;34.10;;;;;;8333266;28;20290;-48
2022/04/06 20:05:16;;;;;;;;;;;18.90;34.10;;;;;;8333485;28;19913;-49
2022/04/06 20:09:19;;;;;;;;;;;18.90;34.10;;;;;;8333957;28;19946;-49
2022/04/06 20:13:20;;;;;;;;;;;18.90;34.10;;;;;;8366305;28;19924;-49
2022/04/06 20:17:20;;;;;;;;;;;19.00;34.20;;;;;;8365655;28;20306;-50
2022/04/06 20:21:22;;;;;;;;;;;18.90;34.10;;;;;;8366276;28;19932;-49
2022/04/06 20:25:23;;;;;;;;;;;18.90;34.10;;;;;;8366074;28;19924;-49
2022/04/06 20:29:23;;;;;;;;;;;18.90;34.10;;;;;;8365704;28;19917;-48
2022/04/06 20:33:24;;;;;;;;;;;18.90;34.10;;;;;;8365929;28;19917;-48
2022/04/06 20:37:25;;;;;;;;;;;18.90;34.10;;;;;;8365707;28;19916;-49
2022/04/06 20:41:26;;;;;;;;;;;18.90;34.10;;;;;;8364948;28;20352;-48
2022/04/06 20:45:27;;;;;;;;;;;18.90;34.10;;;;;;8365290;28;19913;-48
2022/04/06 20:49:27;;;;;;;;;;;18.90;34.10;;;;;;8365523;28;19923;-49
2022/04/06 20:53:27;;;;;;;;;;;18.90;34.10;;;;;;8364458;28;20388;-48
2022/04/06 20:57:28;;;;;;;;;;;18.90;34.10;;;;;;8349845;28;19924;-52
2022/04/06 21:01:28;;;;;;;;;;;18.90;34.10;;;;;;8330734;28;19925;-48
2022/04/06 21:05:29;;;;;;;;;;;18.90;34.20;;;;;;8331282;28;19917;-52
2022/04/06 21:09:30;;;;;;;;;;;18.90;34.20;;;;;;8331899;28;19967;-48
2022/04/06 21:13:30;;;;;;;;;;;18.90;34.20;;;;;;8331457;28;19928;-50
2022/04/06 21:17:31;;;;;;;;;;;18.90;34.20;;;;;;8330996;28;19921;-51
2022/04/06 21:21:31;;;;;;;;;;;18.90;34.30;;;;;;8331173;28;19932;-50
2022/04/06 21:25:32;;;;;;;;;;;18.90;34.30;;;;;;8331369;28;19917;-48
2022/04/06 21:29:33;;;;;;;;;;;18.90;34.30;;;;;;8330915;28;19913;-51
2022/04/06 21:33:33;;;;;;;;;;;18.90;34.30;;;;;;8330945;28;19952;-48
2022/04/06 21:37:34;;;;;;;;;;;18.90;34.30;;;;;;8330985;28;19924;-51
2022/04/06 21:41:34;;;;;;;;;;;18.90;34.30;;;;;;8330236;28;19925;-50
2022/04/06 21:45:35;;;;;;;;;;;18.90;34.30;;;;;;8330668;28;20362;-50
2022/04/06 21:49:35;;;;;;;;;;;18.90;34.30;;;;;;8330773;28;19936;-50
2022/04/06 21:53:35;;;;;;;;;;;18.90;34.40;;;;;;8312385;28;19921;-49
2022/04/06 21:57:36;;;;;;;;;;;18.90;34.40;;;;;;8330427;28;19921;-47
2022/04/06 22:01:36;;;;;;;;;;;18.90;34.50;;;;;;8342533;28;19925;-47
2022/04/06 22:05:38;;;;;;;;;;;18.80;34.40;;;;;;8361518;28;20292;-51
2022/04/06 22:09:39;;;;;;;;;;;18.80;34.40;;;;;;8363720;28;19920;-52
2022/04/06 22:13:39;;;;;;;;;;;18.80;34.50;;;;;;8362807;28;19917;-52
2022/04/06 22:17:40;;;;;;;;;;;18.80;34.50;;;;;;8360293;28;19939;-50
2022/04/06 22:21:41;;;;;;;;;;;18.80;34.50;;;;;;8356736;28;19935;-52
2022/04/06 22:25:42;;;;;;;;;;;18.80;34.50;;;;;;8363138;28;19986;-48
2022/04/06 22:29:42;;;;;;;;;;;18.80;34.60;;;;;;8362641;28;19913;-47
2022/04/06 22:33:43;;;;;;;;;;;18.80;34.60;;;;;;8363084;28;19916;-49
2022/04/06 22:37:43;;;;;;;;;;;18.80;34.60;;;;;;8362549;28;19917;-51
2022/04/06 22:41:44;;;;;;;;;;;18.80;34.70;;;;;;8362053;28;20300;-51
2022/04/06 22:45:45;;;;;;;;;;;18.80;34.70;;;;;;8362647;28;19923;-52
2022/04/06 22:49:45;;;;;;;;;;;18.80;34.70;;;;;;8362856;28;19919;-50
2022/04/06 22:53:46;;;;;;;;;;;18.80;34.80;;;;;;8361937;28;20371;-50
2022/04/06 22:57:47;;;;;;;;;;;18.80;34.70;;;;;;8362414;28;19921;-49
2022/04/06 23:01:47;;;;;;;;;;;18.80;34.80;;;;;;8362327;28;19925;-55
2022/04/06 23:05:48;;;;;;;;;;;18.80;34.80;;;;;;8361850;28;19913;-53
2022/04/06 23:09:49;;;;;;;;;;;18.70;34.80;;;;;;8362673;28;19913;-51
2022/04/06 23:13:49;;;;;;;;;;;18.80;34.90;;;;;;8362198;28;19924;-50
2022/04/06 23:17:49;;;;;;;;;;;18.80;35.00;;;;;;8361641;28;19923;-53
2022/04/06 23:21:50;;;;;;;;;;;18.80;34.90;;;;;;8361945;28;19970;-50
2022/04/06 23:25:50;;;;;;;;;;;18.80;34.90;;;;;;8367317;28;19917;-49
2022/04/06 23:29:51;;;;;;;;;;;18.70;34.90;;;;;;8367609;28;20335;-49
2022/04/06 23:33:51;;;;;;;;;;;18.70;34.90;;;;;;8367591;28;20357;-48
2022/04/06 23:37:52;;;;;;;;;;;18.70;34.80;;;;;;8367576;28;20292;-50
2022/04/06 23:41:52;;;;;;;;;;;18.70;34.90;;;;;;8366833;28;19934;-49
2022/04/06 23:45:52;;;;;;;;;;;18.70;34.90;;;;;;8367408;28;19912;-49
2022/04/06 23:49:54;;;;;;;;;;;18.70;34.90;;;;;;8367344;28;19912;-52